sensor_id;sensor_type;location;lat;lon;timestamp;temperature;humidity
75164;HTU21D;63746;45.402;37.922;2024-01-06T00:02:05;7.38;77.72
75164;HTU21D;63746;45.402;37.922;2024-01-06T00:04:32;7.38;77.69
75164;HTU21D;63746;45.402;37.922;2024-01-06T00:06:58;7.34;77.65
75164;HTU21D;63746;45.402;37.922;2024-01-06T00:09:24;7.32;77.65
75164;HTU21D;63746;45.402;37.922;2024-01-06T00:11:50;7.31;77.65
75164;HTU21D;63746;45.402;37.922;2024-01-06T00:14:16;7.29;77.64
75164;HTU21D;63746;45.402;37.922;2024-01-06T00:16:42;7.27;77.66
75164;HTU21D;63746;45.402;37.922;2024-01-06T00:19:08;7.26;77.66
75164;HTU21D;63746;45.402;37.922;2024-01-06T00:21:34;7.23;77.63
75164;HTU21D;63746;45.402;37.922;2024-01-06T00:24:00;7.22;77.56
75164;HTU21D;63746;45.402;37.922;2024-01-06T00:26:26;7.18;77.55
75164;HTU21D;63746;45.402;37.922;2024-01-06T00:28:52;7.17;77.57
75164;HTU21D;63746;45.402;37.922;2024-01-06T00:31:18;7.15;77.62
75164;HTU21D;63746;45.402;37.922;2024-01-06T00:33:45;7.12;77.60
75164;HTU21D;63746;45.402;37.922;2024-01-06T00:36:11;7.11;77.57
75164;HTU21D;63746;45.402;37.922;2024-01-06T00:38:37;7.10;77.62
75164;HTU21D;63746;45.402;37.922;2024-01-06T00:41:03;7.08;77.62
75164;HTU21D;63746;45.402;37.922;2024-01-06T00:43:29;7.05;77.64
75164;HTU21D;63746;45.402;37.922;2024-01-06T00:45:55;7.03;77.63
75164;HTU21D;63746;45.402;37.922;2024-01-06T00:48:21;7.02;77.61
75164;HTU21D;63746;45.402;37.922;2024-01-06T00:50:47;7.01;77.65
75164;HTU21D;63746;45.402;37.922;2024-01-06T00:53:14;6.99;77.66
75164;HTU21D;63746;45.402;37.922;2024-01-06T00:55:40;6.98;77.69
75164;HTU21D;63746;45.402;37.922;2024-01-06T00:58:06;6.97;77.65
75164;HTU21D;63746;45.402;37.922;2024-01-06T01:00:32;6.95;77.66
75164;HTU21D;63746;45.402;37.922;2024-01-06T01:02:58;6.93;77.63
75164;HTU21D;63746;45.402;37.922;2024-01-06T01:05:24;6.91;77.58
75164;HTU21D;63746;45.402;37.922;2024-01-06T01:07:50;6.89;77.56
75164;HTU21D;63746;45.402;37.922;2024-01-06T01:10:16;6.87;77.62
75164;HTU21D;63746;45.402;37.922;2024-01-06T01:12:41;6.85;77.55
75164;HTU21D;63746;45.402;37.922;2024-01-06T01:15:08;6.82;77.60
75164;HTU21D;63746;45.402;37.922;2024-01-06T01:17:34;6.81;77.63
75164;HTU21D;63746;45.402;37.922;2024-01-06T01:20:00;6.80;77.71
75164;HTU21D;63746;45.402;37.922;2024-01-06T01:22:26;6.79;77.77
75164;HTU21D;63746;45.402;37.922;2024-01-06T01:24:52;6.79;77.78
75164;HTU21D;63746;45.402;37.922;2024-01-06T01:27:18;6.78;77.76
75164;HTU21D;63746;45.402;37.922;2024-01-06T01:29:44;6.79;77.76
75164;HTU21D;63746;45.402;37.922;2024-01-06T01:32:10;6.74;77.70
75164;HTU21D;63746;45.402;37.922;2024-01-06T01:34:36;6.74;77.66
75164;HTU21D;63746;45.402;37.922;2024-01-06T01:37:02;6.71;77.61
75164;HTU21D;63746;45.402;37.922;2024-01-06T01:39:28;6.68;77.51
75164;HTU21D;63746;45.402;37.922;2024-01-06T01:41:54;6.65;77.47
75164;HTU21D;63746;45.402;37.922;2024-01-06T01:44:20;6.63;77.44
75164;HTU21D;63746;45.402;37.922;2024-01-06T01:46:46;6.60;77.47
75164;HTU21D;63746;45.402;37.922;2024-01-06T01:49:12;6.57;77.47
75164;HTU21D;63746;45.402;37.922;2024-01-06T01:51:38;6.55;77.56
75164;HTU21D;63746;45.402;37.922;2024-01-06T01:54:06;6.53;77.56
75164;HTU21D;63746;45.402;37.922;2024-01-06T01:56:32;6.52;77.63
75164;HTU21D;63746;45.402;37.922;2024-01-06T01:59:05;6.50;77.59
75164;HTU21D;63746;45.402;37.922;2024-01-06T02:01:32;6.46;77.55
75164;HTU21D;63746;45.402;37.922;2024-01-06T02:03:58;6.43;77.62
75164;HTU21D;63746;45.402;37.922;2024-01-06T02:06:24;6.44;77.65
75164;HTU21D;63746;45.402;37.922;2024-01-06T02:08:50;6.42;77.68
75164;HTU21D;63746;45.402;37.922;2024-01-06T02:11:16;6.39;77.69
75164;HTU21D;63746;45.402;37.922;2024-01-06T02:13:42;6.38;77.66
75164;HTU21D;63746;45.402;37.922;2024-01-06T02:16:09;6.37;77.63
75164;HTU21D;63746;45.402;37.922;2024-01-06T02:18:35;6.34;77.63
75164;HTU21D;63746;45.402;37.922;2024-01-06T02:21:02;6.31;77.63
75164;HTU21D;63746;45.402;37.922;2024-01-06T02:23:28;6.29;77.56
75164;HTU21D;63746;45.402;37.922;2024-01-06T02:25:55;6.27;77.60
75164;HTU21D;63746;45.402;37.922;2024-01-06T02:28:21;6.25;77.56
75164;HTU21D;63746;45.402;37.922;2024-01-06T02:30:48;6.23;77.61
75164;HTU21D;63746;45.402;37.922;2024-01-06T02:33:14;6.22;77.66
75164;HTU21D;63746;45.402;37.922;2024-01-06T02:35:40;6.21;77.67
75164;HTU21D;63746;45.402;37.922;2024-01-06T02:38:07;6.19;77.67
75164;HTU21D;63746;45.402;37.922;2024-01-06T02:40:34;6.19;77.75
75164;HTU21D;63746;45.402;37.922;2024-01-06T02:43:00;6.17;77.72
75164;HTU21D;63746;45.402;37.922;2024-01-06T02:45:26;6.16;77.73
75164;HTU21D;63746;45.402;37.922;2024-01-06T02:47:52;6.16;77.72
75164;HTU21D;63746;45.402;37.922;2024-01-06T02:50:18;6.15;77.76
75164;HTU21D;63746;45.402;37.922;2024-01-06T02:52:44;6.13;77.74
75164;HTU21D;63746;45.402;37.922;2024-01-06T02:55:11;6.13;77.73
75164;HTU21D;63746;45.402;37.922;2024-01-06T02:57:37;6.12;77.74
75164;HTU21D;63746;45.402;37.922;2024-01-06T03:00:04;6.12;77.72
75164;HTU21D;63746;45.402;37.922;2024-01-06T03:02:30;6.12;77.81
75164;HTU21D;63746;45.402;37.922;2024-01-06T03:04:56;6.11;77.80
75164;HTU21D;63746;45.402;37.922;2024-01-06T03:07:22;6.11;77.81
75164;HTU21D;63746;45.402;37.922;2024-01-06T03:09:48;6.11;77.81
75164;HTU21D;63746;45.402;37.922;2024-01-06T03:12:14;6.10;77.79
75164;HTU21D;63746;45.402;37.922;2024-01-06T03:14:40;6.09;77.77
75164;HTU21D;63746;45.402;37.922;2024-01-06T03:17:06;6.11;77.82
75164;HTU21D;63746;45.402;37.922;2024-01-06T03:19:32;6.09;77.82
75164;HTU21D;63746;45.402;37.922;2024-01-06T03:21:58;6.09;77.82
75164;HTU21D;63746;45.402;37.922;2024-01-06T03:24:26;6.08;77.77
75164;HTU21D;63746;45.402;37.922;2024-01-06T03:26:52;6.08;77.82
75164;HTU21D;63746;45.402;37.922;2024-01-06T03:29:18;6.08;77.80
75164;HTU21D;63746;45.402;37.922;2024-01-06T03:31:45;6.07;77.83
75164;HTU21D;63746;45.402;37.922;2024-01-06T03:34:11;6.06;77.80
75164;HTU21D;63746;45.402;37.922;2024-01-06T03:36:38;6.06;77.76
75164;HTU21D;63746;45.402;37.922;2024-01-06T03:39:04;6.02;77.71
75164;HTU21D;63746;45.402;37.922;2024-01-06T03:41:30;6.02;77.72
75164;HTU21D;63746;45.402;37.922;2024-01-06T03:43:56;6.00;77.69
75164;HTU21D;63746;45.402;37.922;2024-01-06T03:46:23;5.98;77.72
75164;HTU21D;63746;45.402;37.922;2024-01-06T03:48:49;5.98;77.69
75164;HTU21D;63746;45.402;37.922;2024-01-06T03:51:15;5.96;77.75
75164;HTU21D;63746;45.402;37.922;2024-01-06T03:53:41;5.95;77.74
75164;HTU21D;63746;45.402;37.922;2024-01-06T03:56:07;5.95;77.79
75164;HTU21D;63746;45.402;37.922;2024-01-06T03:58:33;5.95;77.79
75164;HTU21D;63746;45.402;37.922;2024-01-06T04:00:59;5.95;77.84
75164;HTU21D;63746;45.402;37.922;2024-01-06T04:03:25;5.93;77.86
75164;HTU21D;63746;45.402;37.922;2024-01-06T04:05:51;5.94;77.86
75164;HTU21D;63746;45.402;37.922;2024-01-06T04:08:17;5.94;77.94
75164;HTU21D;63746;45.402;37.922;2024-01-06T04:10:43;5.95;77.96
75164;HTU21D;63746;45.402;37.922;2024-01-06T04:13:11;5.94;77.90
75164;HTU21D;63746;45.402;37.922;2024-01-06T04:15:37;5.93;77.95
75164;HTU21D;63746;45.402;37.922;2024-01-06T04:18:04;5.94;78.00
75164;HTU21D;63746;45.402;37.922;2024-01-06T04:20:32;5.95;78.07
75164;HTU21D;63746;45.402;37.922;2024-01-06T04:22:58;5.94;78.10
75164;HTU21D;63746;45.402;37.922;2024-01-06T04:25:25;5.95;78.14
75164;HTU21D;63746;45.402;37.922;2024-01-06T04:27:51;5.97;78.13
75164;HTU21D;63746;45.402;37.922;2024-01-06T04:30:17;5.96;78.08
75164;HTU21D;63746;45.402;37.922;2024-01-06T04:32:43;5.96;78.01
75164;HTU21D;63746;45.402;37.922;2024-01-06T04:35:10;5.95;78.05
75164;HTU21D;63746;45.402;37.922;2024-01-06T04:37:36;5.94;77.95
75164;HTU21D;63746;45.402;37.922;2024-01-06T04:40:03;5.94;78.01
75164;HTU21D;63746;45.402;37.922;2024-01-06T04:42:29;5.94;78.07
75164;HTU21D;63746;45.402;37.922;2024-01-06T04:44:55;5.95;78.07
75164;HTU21D;63746;45.402;37.922;2024-01-06T04:47:21;5.96;78.12
75164;HTU21D;63746;45.402;37.922;2024-01-06T04:49:47;5.97;78.14
75164;HTU21D;63746;45.402;37.922;2024-01-06T04:52:13;5.97;78.14
75164;HTU21D;63746;45.402;37.922;2024-01-06T04:54:39;5.97;78.11
75164;HTU21D;63746;45.402;37.922;2024-01-06T04:57:05;5.98;78.14
75164;HTU21D;63746;45.402;37.922;2024-01-06T04:59:31;5.98;78.08
75164;HTU21D;63746;45.402;37.922;2024-01-06T05:01:57;5.99;78.05
75164;HTU21D;63746;45.402;37.922;2024-01-06T05:04:24;5.97;78.08
75164;HTU21D;63746;45.402;37.922;2024-01-06T05:06:53;5.97;77.98
75164;HTU21D;63746;45.402;37.922;2024-01-06T05:09:20;5.95;77.93
75164;HTU21D;63746;45.402;37.922;2024-01-06T05:11:46;5.92;77.88
75164;HTU21D;63746;45.402;37.922;2024-01-06T05:14:12;5.89;77.94
75164;HTU21D;63746;45.402;37.922;2024-01-06T05:16:38;5.90;77.97
75164;HTU21D;63746;45.402;37.922;2024-01-06T05:19:04;5.89;78.02
75164;HTU21D;63746;45.402;37.922;2024-01-06T05:21:30;5.90;78.08
75164;HTU21D;63746;45.402;37.922;2024-01-06T05:23:56;5.89;78.18
75164;HTU21D;63746;45.402;37.922;2024-01-06T05:26:22;5.91;78.21
75164;HTU21D;63746;45.402;37.922;2024-01-06T05:28:48;5.91;78.18
75164;HTU21D;63746;45.402;37.922;2024-01-06T05:31:14;5.92;78.15
75164;HTU21D;63746;45.402;37.922;2024-01-06T05:33:40;5.92;78.21
75164;HTU21D;63746;45.402;37.922;2024-01-06T05:36:06;5.93;78.20
75164;HTU21D;63746;45.402;37.922;2024-01-06T05:38:33;5.94;78.16
75164;HTU21D;63746;45.402;37.922;2024-01-06T05:40:59;5.96;78.24
75164;HTU21D;63746;45.402;37.922;2024-01-06T05:43:25;5.97;78.30
75164;HTU21D;63746;45.402;37.922;2024-01-06T05:45:51;6.00;78.30
75164;HTU21D;63746;45.402;37.922;2024-01-06T05:48:17;6.00;78.40
75164;HTU21D;63746;45.402;37.922;2024-01-06T05:50:44;6.05;78.42
75164;HTU21D;63746;45.402;37.922;2024-01-06T05:53:10;6.07;78.40
75164;HTU21D;63746;45.402;37.922;2024-01-06T05:55:36;6.09;78.42
75164;HTU21D;63746;45.402;37.922;2024-01-06T05:58:02;6.13;78.43
75164;HTU21D;63746;45.402;37.922;2024-01-06T06:00:28;6.15;78.43
75164;HTU21D;63746;45.402;37.922;2024-01-06T06:02:57;6.16;78.40
75164;HTU21D;63746;45.402;37.922;2024-01-06T06:05:23;6.19;78.37
75164;HTU21D;63746;45.402;37.922;2024-01-06T06:07:49;6.19;78.34
75164;HTU21D;63746;45.402;37.922;2024-01-06T06:10:15;6.22;78.37
75164;HTU21D;63746;45.402;37.922;2024-01-06T06:12:44;6.24;78.44
75164;HTU21D;63746;45.402;37.922;2024-01-06T06:15:10;6.26;78.41
75164;HTU21D;63746;45.402;37.922;2024-01-06T06:17:36;6.30;78.46
75164;HTU21D;63746;45.402;37.922;2024-01-06T06:20:03;6.36;78.53
75164;HTU21D;63746;45.402;37.922;2024-01-06T06:22:29;6.41;78.64
75164;HTU21D;63746;45.402;37.922;2024-01-06T06:24:59;6.48;78.67
75164;HTU21D;63746;45.402;37.922;2024-01-06T06:27:25;6.55;78.80
75164;HTU21D;63746;45.402;37.922;2024-01-06T06:29:52;6.64;78.85
75164;HTU21D;63746;45.402;37.922;2024-01-06T06:32:19;6.72;78.98
75164;HTU21D;63746;45.402;37.922;2024-01-06T06:34:45;6.81;79.04
75164;HTU21D;63746;45.402;37.922;2024-01-06T06:37:11;6.91;79.10
75164;HTU21D;63746;45.402;37.922;2024-01-06T06:39:37;7.00;79.09
75164;HTU21D;63746;45.402;37.922;2024-01-06T06:42:04;7.12;79.15
75164;HTU21D;63746;45.402;37.922;2024-01-06T06:44:30;7.22;79.18
75164;HTU21D;63746;45.402;37.922;2024-01-06T06:46:56;7.32;79.13
75164;HTU21D;63746;45.402;37.922;2024-01-06T06:49:22;7.41;78.99
75164;HTU21D;63746;45.402;37.922;2024-01-06T06:51:48;7.48;78.96
75164;HTU21D;63746;45.402;37.922;2024-01-06T06:54:15;7.58;78.92
75164;HTU21D;63746;45.402;37.922;2024-01-06T06:56:42;7.67;78.92
75164;HTU21D;63746;45.402;37.922;2024-01-06T06:59:09;7.77;78.95
75164;HTU21D;63746;45.402;37.922;2024-01-06T07:01:35;7.88;78.90
75164;HTU21D;63746;45.402;37.922;2024-01-06T07:04:02;7.97;78.85
75164;HTU21D;63746;45.402;37.922;2024-01-06T07:06:29;8.05;78.85
75164;HTU21D;63746;45.402;37.922;2024-01-06T07:08:56;8.17;78.86
75164;HTU21D;63746;45.402;37.922;2024-01-06T07:11:22;8.28;78.88
75164;HTU21D;63746;45.402;37.922;2024-01-06T07:13:49;8.37;78.72
75164;HTU21D;63746;45.402;37.922;2024-01-06T07:16:16;8.43;78.57
75164;HTU21D;63746;45.402;37.922;2024-01-06T07:18:42;8.50;78.56
75164;HTU21D;63746;45.402;37.922;2024-01-06T07:21:08;8.59;78.56
75164;HTU21D;63746;45.402;37.922;2024-01-06T07:23:34;8.65;78.50
75164;HTU21D;63746;45.402;37.922;2024-01-06T07:26:01;8.74;78.52
75164;HTU21D;63746;45.402;37.922;2024-01-06T07:28:27;8.83;78.55
75164;HTU21D;63746;45.402;37.922;2024-01-06T07:30:53;8.92;78.54
75164;HTU21D;63746;45.402;37.922;2024-01-06T07:33:20;9.00;78.48
75164;HTU21D;63746;45.402;37.922;2024-01-06T07:35:46;9.07;78.32
75164;HTU21D;63746;45.402;37.922;2024-01-06T07:38:13;9.11;78.25
75164;HTU21D;63746;45.402;37.922;2024-01-06T07:40:39;9.18;78.30
75164;HTU21D;63746;45.402;37.922;2024-01-06T07:43:06;9.25;78.24
75164;HTU21D;63746;45.402;37.922;2024-01-06T07:45:32;9.32;78.18
75164;HTU21D;63746;45.402;37.922;2024-01-06T07:47:59;9.40;78.28
75164;HTU21D;63746;45.402;37.922;2024-01-06T07:50:26;9.45;78.21
75164;HTU21D;63746;45.402;37.922;2024-01-06T07:52:52;9.52;78.22
75164;HTU21D;63746;45.402;37.922;2024-01-06T07:55:18;9.62;78.23
75164;HTU21D;63746;45.402;37.922;2024-01-06T07:57:44;9.69;78.21
75164;HTU21D;63746;45.402;37.922;2024-01-06T08:00:11;9.77;78.19
75164;HTU21D;63746;45.402;37.922;2024-01-06T08:02:41;9.84;78.06
75164;HTU21D;63746;45.402;37.922;2024-01-06T08:05:07;9.91;78.15
75164;HTU21D;63746;45.402;37.922;2024-01-06T08:07:33;9.99;78.14
75164;HTU21D;63746;45.402;37.922;2024-01-06T08:10:00;10.06;77.99
75164;HTU21D;63746;45.402;37.922;2024-01-06T08:12:26;10.10;77.85
75164;HTU21D;63746;45.402;37.922;2024-01-06T08:14:52;10.15;77.82
75164;HTU21D;63746;45.402;37.922;2024-01-06T08:17:18;10.20;77.76
75164;HTU21D;63746;45.402;37.922;2024-01-06T08:19:44;10.25;77.74
75164;HTU21D;63746;45.402;37.922;2024-01-06T08:22:13;10.30;77.72
75164;HTU21D;63746;45.402;37.922;2024-01-06T08:24:39;10.34;77.56
75164;HTU21D;63746;45.402;37.922;2024-01-06T08:27:05;10.37;77.50
75164;HTU21D;63746;45.402;37.922;2024-01-06T08:29:31;10.41;77.59
75164;HTU21D;63746;45.402;37.922;2024-01-06T08:31:57;10.51;77.69
75164;HTU21D;63746;45.402;37.922;2024-01-06T08:34:23;10.58;77.70
75164;HTU21D;63746;45.402;37.922;2024-01-06T08:36:49;10.64;77.56
75164;HTU21D;63746;45.402;37.922;2024-01-06T08:39:16;10.69;77.50
75164;HTU21D;63746;45.402;37.922;2024-01-06T08:41:42;10.75;77.44
75164;HTU21D;63746;45.402;37.922;2024-01-06T08:44:08;10.81;77.50
75164;HTU21D;63746;45.402;37.922;2024-01-06T08:46:34;10.87;77.42
75164;HTU21D;63746;45.402;37.922;2024-01-06T08:49:01;10.92;77.34
75164;HTU21D;63746;45.402;37.922;2024-01-06T08:51:27;10.96;77.35
75164;HTU21D;63746;45.402;37.922;2024-01-06T08:53:53;10.99;77.33
75164;HTU21D;63746;45.402;37.922;2024-01-06T08:56:20;11.05;77.31
75164;HTU21D;63746;45.402;37.922;2024-01-06T08:58:46;11.12;77.25
75164;HTU21D;63746;45.402;37.922;2024-01-06T09:01:12;11.16;77.21
75164;HTU21D;63746;45.402;37.922;2024-01-06T09:03:39;11.22;77.17
75164;HTU21D;63746;45.402;37.922;2024-01-06T09:06:06;11.23;76.98
75164;HTU21D;63746;45.402;37.922;2024-01-06T09:08:32;11.22;76.87
75164;HTU21D;63746;45.402;37.922;2024-01-06T09:10:58;11.25;76.94
75164;HTU21D;63746;45.402;37.922;2024-01-06T09:13:25;11.29;76.95
75164;HTU21D;63746;45.402;37.922;2024-01-06T09:15:51;11.29;76.85
75164;HTU21D;63746;45.402;37.922;2024-01-06T09:18:18;11.25;76.68
75164;HTU21D;63746;45.402;37.922;2024-01-06T09:20:44;11.24;76.68
75164;HTU21D;63746;45.402;37.922;2024-01-06T09:23:12;11.25;76.76
75164;HTU21D;63746;45.402;37.922;2024-01-06T09:25:38;11.27;76.82
75164;HTU21D;63746;45.402;37.922;2024-01-06T09:28:05;11.30;76.90
75164;HTU21D;63746;45.402;37.922;2024-01-06T09:30:32;11.32;76.89
75164;HTU21D;63746;45.402;37.922;2024-01-06T09:32:58;11.34;76.81
75164;HTU21D;63746;45.402;37.922;2024-01-06T09:35:24;11.34;76.66
75164;HTU21D;63746;45.402;37.922;2024-01-06T09:37:50;11.31;76.62
75164;HTU21D;63746;45.402;37.922;2024-01-06T09:40:22;11.31;76.75
75164;HTU21D;63746;45.402;37.922;2024-01-06T09:42:51;11.34;76.83
75164;HTU21D;63746;45.402;37.922;2024-01-06T09:45:19;11.40;76.91
75164;HTU21D;63746;45.402;37.922;2024-01-06T09:47:49;11.43;76.92
75164;HTU21D;63746;45.402;37.922;2024-01-06T09:50:18;11.51;77.03
75164;HTU21D;63746;45.402;37.922;2024-01-06T09:52:48;11.56;76.97
75164;HTU21D;63746;45.402;37.922;2024-01-06T09:55:28;11.63;76.85
75164;HTU21D;63746;45.402;37.922;2024-01-06T09:57:54;11.60;76.59
75164;HTU21D;63746;45.402;37.922;2024-01-06T10:00:21;11.61;76.60
75164;HTU21D;63746;45.402;37.922;2024-01-06T10:02:48;11.62;76.59
75164;HTU21D;63746;45.402;37.922;2024-01-06T10:05:18;11.61;76.50
75164;HTU21D;63746;45.402;37.922;2024-01-06T10:07:45;11.61;76.66
75164;HTU21D;63746;45.402;37.922;2024-01-06T10:10:12;11.64;76.73
75164;HTU21D;63746;45.402;37.922;2024-01-06T10:12:38;11.69;76.70
75164;HTU21D;63746;45.402;37.922;2024-01-06T10:15:08;11.74;76.82
75164;HTU21D;63746;45.402;37.922;2024-01-06T10:17:39;11.76;76.78
75164;HTU21D;63746;45.402;37.922;2024-01-06T10:20:10;11.82;76.76
75164;HTU21D;63746;45.402;37.922;2024-01-06T10:22:38;11.82;76.68
75164;HTU21D;63746;45.402;37.922;2024-01-06T10:25:06;11.85;76.58
75164;HTU21D;63746;45.402;37.922;2024-01-06T10:27:42;11.82;76.47
75164;HTU21D;63746;45.402;37.922;2024-01-06T10:30:09;11.79;76.37
75164;HTU21D;63746;45.402;37.922;2024-01-06T10:32:36;11.77;76.42
75164;HTU21D;63746;45.402;37.922;2024-01-06T10:35:03;11.77;76.43
75164;HTU21D;63746;45.402;37.922;2024-01-06T10:37:30;11.81;76.47
75164;HTU21D;63746;45.402;37.922;2024-01-06T10:40:13;11.85;76.56
75164;HTU21D;63746;45.402;37.922;2024-01-06T10:42:42;11.90;76.52
75164;HTU21D;63746;45.402;37.922;2024-01-06T10:45:12;11.92;76.44
75164;HTU21D;63746;45.402;37.922;2024-01-06T10:47:43;11.94;76.50
75164;HTU21D;63746;45.402;37.922;2024-01-06T10:50:09;11.98;76.41
75164;HTU21D;63746;45.402;37.922;2024-01-06T10:52:37;12.01;76.44
75164;HTU21D;63746;45.402;37.922;2024-01-06T10:55:05;12.03;76.43
75164;HTU21D;63746;45.402;37.922;2024-01-06T10:57:31;12.03;76.34
75164;HTU21D;63746;45.402;37.922;2024-01-06T10:59:59;12.04;76.26
75164;HTU21D;63746;45.402;37.922;2024-01-06T11:02:26;12.05;76.22
75164;HTU21D;63746;45.402;37.922;2024-01-06T11:04:52;12.03;76.16
75164;HTU21D;63746;45.402;37.922;2024-01-06T11:07:20;12.01;76.10
75164;HTU21D;63746;45.402;37.922;2024-01-06T11:09:55;11.99;76.05
75164;HTU21D;63746;45.402;37.922;2024-01-06T11:12:21;11.96;75.89
75164;HTU21D;63746;45.402;37.922;2024-01-06T11:14:47;11.90;75.92
75164;HTU21D;63746;45.402;37.922;2024-01-06T11:20:27;11.77;75.70
75164;HTU21D;63746;45.402;37.922;2024-01-06T11:22:53;11.73;75.95
75164;HTU21D;63746;45.402;37.922;2024-01-06T11:25:20;11.72;76.08
75164;HTU21D;63746;45.402;37.922;2024-01-06T11:27:48;11.66;75.87
75164;HTU21D;63746;45.402;37.922;2024-01-06T11:30:24;11.60;75.92
75164;HTU21D;63746;45.402;37.922;2024-01-06T11:32:55;11.56;75.86
75164;HTU21D;63746;45.402;37.922;2024-01-06T11:35:26;11.49;75.92
75164;HTU21D;63746;45.402;37.922;2024-01-06T11:37:55;11.44;76.00
75164;HTU21D;63746;45.402;37.922;2024-01-06T11:40:23;11.40;75.95
75164;HTU21D;63746;45.402;37.922;2024-01-06T11:43:12;11.33;75.88
75164;HTU21D;63746;45.402;37.922;2024-01-06T11:45:41;11.27;75.91
75164;HTU21D;63746;45.402;37.922;2024-01-06T11:48:09;11.20;75.79
75164;HTU21D;63746;45.402;37.922;2024-01-06T11:50:38;11.14;75.98
75164;HTU21D;63746;45.402;37.922;2024-01-06T11:53:05;11.12;76.12
75164;HTU21D;63746;45.402;37.922;2024-01-06T11:55:31;11.12;76.22
75164;HTU21D;63746;45.402;37.922;2024-01-06T11:57:58;11.12;76.26
75164;HTU21D;63746;45.402;37.922;2024-01-06T12:00:28;11.13;76.34
75164;HTU21D;63746;45.402;37.922;2024-01-06T12:02:58;11.14;76.31
75164;HTU21D;63746;45.402;37.922;2024-01-06T12:05:25;11.12;76.22
75164;HTU21D;63746;45.402;37.922;2024-01-06T12:07:55;11.09;76.15
75164;HTU21D;63746;45.402;37.922;2024-01-06T12:10:23;11.05;76.21
75164;HTU21D;63746;45.402;37.922;2024-01-06T12:13:03;11.07;76.29
75164;HTU21D;63746;45.402;37.922;2024-01-06T12:15:30;11.08;76.33
75164;HTU21D;63746;45.402;37.922;2024-01-06T12:17:57;11.07;76.25
75164;HTU21D;63746;45.402;37.922;2024-01-06T12:20:25;11.05;76.31
75164;HTU21D;63746;45.402;37.922;2024-01-06T12:22:52;11.09;76.40
75164;HTU21D;63746;45.402;37.922;2024-01-06T12:25:18;11.10;76.35
75164;HTU21D;63746;45.402;37.922;2024-01-06T12:27:46;11.09;76.29
75164;HTU21D;63746;45.402;37.922;2024-01-06T12:30:16;11.11;76.30
75164;HTU21D;63746;45.402;37.922;2024-01-06T12:32:48;11.12;76.34
75164;HTU21D;63746;45.402;37.922;2024-01-06T12:35:20;11.14;76.31
75164;HTU21D;63746;45.402;37.922;2024-01-06T12:37:51;11.15;76.25
75164;HTU21D;63746;45.402;37.922;2024-01-06T12:40:17;11.15;76.27
75164;HTU21D;63746;45.402;37.922;2024-01-06T12:42:45;11.16;76.28
75164;HTU21D;63746;45.402;37.922;2024-01-06T12:45:12;11.19;76.16
75164;HTU21D;63746;45.402;37.922;2024-01-06T12:47:38;11.18;76.21
75164;HTU21D;63746;45.402;37.922;2024-01-06T12:50:05;11.20;76.24
75164;HTU21D;63746;45.402;37.922;2024-01-06T12:52:33;11.24;76.28
75164;HTU21D;63746;45.402;37.922;2024-01-06T12:54:59;11.25;76.28
75164;HTU21D;63746;45.402;37.922;2024-01-06T12:57:25;11.28;76.31
75164;HTU21D;63746;45.402;37.922;2024-01-06T12:59:51;11.29;76.21
75164;HTU21D;63746;45.402;37.922;2024-01-06T13:02:17;11.32;76.22
75164;HTU21D;63746;45.402;37.922;2024-01-06T13:04:43;11.36;76.28
75164;HTU21D;63746;45.402;37.922;2024-01-06T13:07:09;11.37;76.24
75164;HTU21D;63746;45.402;37.922;2024-01-06T13:09:35;11.39;76.22
75164;HTU21D;63746;45.402;37.922;2024-01-06T13:12:02;11.41;76.21
75164;HTU21D;63746;45.402;37.922;2024-01-06T13:14:28;11.41;76.05
75164;HTU21D;63746;45.402;37.922;2024-01-06T13:16:55;11.39;75.97
75164;HTU21D;63746;45.402;37.922;2024-01-06T13:19:23;11.37;76.02
75164;HTU21D;63746;45.402;37.922;2024-01-06T13:21:49;11.36;76.02
75164;HTU21D;63746;45.402;37.922;2024-01-06T13:24:15;11.34;76.03
75164;HTU21D;63746;45.402;37.922;2024-01-06T13:26:41;11.32;76.00
75164;HTU21D;63746;45.402;37.922;2024-01-06T13:29:07;11.30;76.01
75164;HTU21D;63746;45.402;37.922;2024-01-06T13:31:33;11.28;76.00
75164;HTU21D;63746;45.402;37.922;2024-01-06T13:33:59;11.25;76.05
75164;HTU21D;63746;45.402;37.922;2024-01-06T13:36:25;11.23;75.99
75164;HTU21D;63746;45.402;37.922;2024-01-06T13:38:51;11.22;76.00
75164;HTU21D;63746;45.402;37.922;2024-01-06T13:41:17;11.19;75.99
75164;HTU21D;63746;45.402;37.922;2024-01-06T13:43:43;11.17;75.98
75164;HTU21D;63746;45.402;37.922;2024-01-06T13:46:11;11.14;75.98
75164;HTU21D;63746;45.402;37.922;2024-01-06T13:48:40;11.11;75.91
75164;HTU21D;63746;45.402;37.922;2024-01-06T13:51:06;11.09;75.92
75164;HTU21D;63746;45.402;37.922;2024-01-06T13:53:33;11.04;75.90
75164;HTU21D;63746;45.402;37.922;2024-01-06T13:55:59;11.00;75.96
75164;HTU21D;63746;45.402;37.922;2024-01-06T13:58:25;10.98;75.94
75164;HTU21D;63746;45.402;37.922;2024-01-06T14:00:51;10.93;75.99
75164;HTU21D;63746;45.402;37.922;2024-01-06T14:03:17;10.89;75.99
75164;HTU21D;63746;45.402;37.922;2024-01-06T14:05:43;10.86;75.95
75164;HTU21D;63746;45.402;37.922;2024-01-06T14:08:10;10.81;75.83
75164;HTU21D;63746;45.402;37.922;2024-01-06T14:10:36;10.77;75.81
75164;HTU21D;63746;45.402;37.922;2024-01-06T14:13:03;10.74;75.86
75164;HTU21D;63746;45.402;37.922;2024-01-06T14:15:29;10.69;75.80
75164;HTU21D;63746;45.402;37.922;2024-01-06T14:17:56;10.66;75.95
75164;HTU21D;63746;45.402;37.922;2024-01-06T14:20:23;10.62;75.96
75164;HTU21D;63746;45.402;37.922;2024-01-06T14:22:49;10.58;75.89
75164;HTU21D;63746;45.402;37.922;2024-01-06T14:25:15;10.53;76.02
75164;HTU21D;63746;45.402;37.922;2024-01-06T14:27:45;10.49;75.94
75164;HTU21D;63746;45.402;37.922;2024-01-06T14:30:11;10.44;75.93
75164;HTU21D;63746;45.402;37.922;2024-01-06T14:32:38;10.40;76.01
75164;HTU21D;63746;45.402;37.922;2024-01-06T14:35:07;10.37;76.14
75164;HTU21D;63746;45.402;37.922;2024-01-06T14:37:37;10.36;76.08
75164;HTU21D;63746;45.402;37.922;2024-01-06T14:40:04;10.31;76.09
75164;HTU21D;63746;45.402;37.922;2024-01-06T14:42:32;10.27;76.09
75164;HTU21D;63746;45.402;37.922;2024-01-06T14:44:59;10.26;76.11
75164;HTU21D;63746;45.402;37.922;2024-01-06T14:47:25;10.24;76.17
75164;HTU21D;63746;45.402;37.922;2024-01-06T14:49:51;10.22;76.15
75164;HTU21D;63746;45.402;37.922;2024-01-06T14:52:17;10.19;76.15
75164;HTU21D;63746;45.402;37.922;2024-01-06T14:54:44;10.16;76.21
75164;HTU21D;63746;45.402;37.922;2024-01-06T14:57:10;10.14;76.16
75164;HTU21D;63746;45.402;37.922;2024-01-06T14:59:36;10.13;76.17
75164;HTU21D;63746;45.402;37.922;2024-01-06T15:02:03;10.09;76.15
75164;HTU21D;63746;45.402;37.922;2024-01-06T15:04:29;10.08;76.14
75164;HTU21D;63746;45.402;37.922;2024-01-06T15:06:55;10.07;76.12
75164;HTU21D;63746;45.402;37.922;2024-01-06T15:09:21;10.04;76.12
75164;HTU21D;63746;45.402;37.922;2024-01-06T15:11:49;10.00;76.06